createdAt,value
2018-01-19T00:02:02.508Z,5.90
2018-01-19T00:04:30.923Z,7.03
2018-01-19T00:06:59.371Z,4.10
2018-01-19T00:09:27.788Z,11.00
2018-01-19T00:11:56.206Z,11.43
2018-01-19T00:14:24.643Z,6.20
2018-01-19T00:16:53.157Z,14.17
2018-01-19T00:19:21.636Z,11.60
2018-01-19T00:21:50.115Z,13.60
2018-01-19T00:24:18.930Z,6.30
2018-01-19T00:26:47.289Z,11.00
2018-01-19T00:29:16.433Z,12.00
2018-01-19T00:31:44.878Z,14.90
2018-01-19T00:34:13.236Z,8.43
2018-01-19T00:36:42.376Z,4.40
2018-01-19T00:39:10.739Z,7.93
2018-01-19T00:41:39.172Z,11.20
2018-01-19T00:44:07.596Z,8.47
2018-01-19T00:46:36.011Z,5.57
2018-01-19T00:49:04.439Z,7.20
2018-01-19T00:51:32.890Z,7.63
2018-01-19T00:54:01.267Z,11.90
2018-01-19T00:56:29.686Z,10.23
2018-01-19T00:58:58.117Z,4.63
2018-01-19T01:01:26.568Z,9.67
2018-01-19T01:03:55.026Z,8.03
2018-01-19T01:06:23.533Z,8.40
2018-01-19T01:08:51.878Z,9.80
2018-01-19T01:11:20.373Z,4.13
2018-01-19T01:13:48.923Z,6.30
2018-01-19T01:16:18.162Z,4.07
2018-01-19T01:18:46.599Z,5.43
2018-01-19T01:21:15.793Z,6.10
2018-01-19T01:23:44.983Z,5.03
2018-01-19T01:26:13.442Z,5.67
2018-01-19T01:28:42.116Z,4.83
2018-01-19T01:31:10.535Z,6.17
2018-01-19T01:33:39.839Z,10.10
2018-01-19T01:36:09.025Z,8.60
2018-01-19T01:38:37.459Z,7.43
2018-01-19T01:41:05.903Z,10.50
2018-01-19T01:43:35.141Z,8.43
2018-01-19T01:46:03.602Z,16.43
2018-01-19T01:48:32.031Z,5.60
2018-01-19T01:51:00.483Z,15.90
2018-01-19T01:53:28.897Z,12.00
2018-01-19T01:55:57.307Z,7.60
2018-01-19T01:58:26.437Z,7.63
2018-01-19T02:00:55.006Z,14.33
2018-01-19T02:03:23.360Z,11.50
2018-01-19T02:05:52.488Z,13.60
2018-01-19T02:08:20.936Z,13.07
2018-01-19T02:10:50.075Z,12.03
2018-01-19T02:13:18.440Z,14.33
2018-01-19T02:15:46.907Z,11.33
2018-01-19T02:18:15.273Z,12.13
2018-01-19T02:20:44.494Z,7.67
2018-01-19T02:23:13.690Z,12.03
2018-01-19T02:25:42.128Z,14.53
2018-01-19T02:28:11.372Z,8.40
2018-01-19T02:30:39.743Z,18.00
2018-01-19T02:33:08.143Z,11.93
2018-01-19T02:35:36.512Z,14.70
2018-01-19T02:38:04.921Z,11.60
2018-01-19T02:40:33.366Z,12.43
2018-01-19T02:43:01.799Z,14.20
2018-01-19T02:45:30.949Z,15.80
2018-01-19T02:47:59.333Z,12.13
2018-01-19T02:50:27.691Z,12.20
2018-01-19T02:52:56.123Z,13.13
2018-01-19T02:55:24.675Z,15.37
2018-01-19T02:57:53.320Z,14.43
2018-01-19T03:00:22.514Z,11.43
2018-01-19T03:02:50.909Z,12.63
2018-01-19T03:05:19.272Z,14.07
2018-01-19T03:07:48.458Z,10.80
2018-01-19T03:10:17.791Z,10.57
2018-01-19T03:12:46.235Z,16.27
2018-01-19T03:15:15.551Z,12.37
2018-01-19T03:17:43.932Z,11.40
2018-01-19T03:20:12.397Z,14.27
2018-01-19T03:22:41.551Z,21.07
2018-01-19T03:25:09.922Z,12.00
2018-01-19T03:27:38.342Z,8.90
2018-01-19T03:30:06.806Z,14.73
2018-01-19T03:32:35.185Z,12.63
2018-01-19T03:35:03.574Z,10.00
2018-01-19T03:37:31.995Z,19.47
2018-01-19T03:40:00.399Z,14.87
2018-01-19T03:42:28.816Z,20.87
2018-01-19T03:44:58.081Z,19.53
2018-01-19T03:47:26.556Z,13.27
2018-01-19T03:49:55.116Z,19.00
2018-01-19T03:52:23.571Z,11.97
2018-01-19T03:54:52.808Z,18.87
2018-01-19T03:57:21.216Z,19.83
2018-01-19T03:59:49.636Z,16.80
2018-01-19T04:02:18.037Z,19.27
2018-01-19T04:04:46.389Z,8.23
2018-01-19T04:07:15.734Z,13.90
2018-01-19T04:09:44.200Z,13.90
2018-01-19T04:12:12.584Z,14.50
2018-01-19T04:14:41.035Z,14.90
2018-01-19T04:17:09.451Z,19.07
2018-01-19T04:19:37.880Z,15.60
2018-01-19T04:22:07.016Z,17.80
2018-01-19T04:24:35.427Z,15.03
2018-01-19T04:27:03.837Z,21.13
2018-01-19T04:29:32.184Z,16.40
2018-01-19T04:32:00.532Z,15.33
2018-01-19T04:34:28.899Z,15.80
2018-01-19T04:36:57.273Z,15.27
2018-01-19T04:39:25.727Z,19.40
2018-01-19T04:41:54.923Z,12.47
2018-01-19T04:44:24.056Z,17.70
2018-01-19T04:46:52.499Z,18.07
2018-01-19T04:49:20.897Z,14.80
2018-01-19T04:51:49.346Z,17.10
2018-01-19T04:54:17.737Z,15.93
2018-01-19T04:56:46.152Z,11.93
2018-01-19T04:59:14.537Z,19.30
2018-01-19T05:01:43.090Z,14.67
2018-01-19T05:04:11.547Z,18.37
2018-01-19T05:06:40.775Z,22.43
2018-01-19T05:09:09.199Z,21.33
2018-01-19T05:11:37.642Z,18.53
2018-01-19T05:14:06.086Z,31.43
2018-01-19T05:16:35.321Z,16.90
2018-01-19T05:19:03.754Z,23.97
2018-01-19T05:21:32.217Z,15.10
2018-01-19T05:24:00.608Z,26.50
2018-01-19T05:26:29.039Z,14.10
2018-01-19T05:28:57.406Z,16.47
2018-01-19T05:31:25.990Z,19.20
2018-01-19T05:33:54.368Z,19.00
2018-01-19T05:36:23.490Z,19.43
2018-01-19T05:38:51.944Z,17.87
2018-01-19T05:41:20.327Z,12.43
2018-01-19T05:43:48.717Z,17.13
2018-01-19T05:46:17.090Z,18.73
2018-01-19T05:48:45.484Z,19.60
2018-01-19T05:51:13.982Z,20.43
2018-01-19T05:53:42.346Z,18.80
2018-01-19T05:56:10.798Z,14.03
2018-01-19T05:58:39.177Z,22.03
2018-01-19T06:01:07.619Z,17.00
2018-01-19T06:03:36.045Z,17.30
2018-01-19T06:06:04.459Z,19.10
2018-01-19T06:08:32.904Z,20.07
2018-01-19T06:11:01.313Z,18.67
2018-01-19T06:13:29.753Z,13.63
2018-01-19T06:15:58.120Z,16.93
2018-01-19T06:18:27.349Z,15.33
2018-01-19T06:20:56.502Z,14.37
2018-01-19T06:23:25.632Z,21.30
2018-01-19T06:25:54.084Z,9.50
2018-01-19T06:28:23.311Z,12.90
2018-01-19T06:30:51.735Z,14.83
2018-01-19T06:33:20.128Z,16.20
2018-01-19T06:35:48.539Z,15.90
2018-01-19T06:38:16.970Z,11.20
2018-01-19T06:40:45.355Z,12.80
2018-01-19T06:43:13.786Z,8.43
2018-01-19T06:45:42.145Z,13.80
2018-01-19T06:48:11.447Z,18.10
2018-01-19T06:50:39.833Z,14.57
2018-01-19T06:53:08.956Z,17.03
2018-01-19T06:55:37.349Z,12.67
2018-01-19T06:58:05.861Z,15.53
2018-01-19T07:00:34.997Z,16.03
2018-01-19T07:03:03.442Z,12.40
2018-01-19T07:05:32.590Z,16.23
2018-01-19T07:08:01.004Z,15.03
2018-01-19T07:10:29.436Z,20.83
2018-01-19T07:12:57.835Z,13.80
2018-01-19T07:15:26.283Z,19.00
2018-01-19T07:17:54.859Z,12.60
2018-01-19T07:20:23.343Z,16.77
2018-01-19T07:22:51.722Z,15.93
2018-01-19T07:25:20.116Z,14.83
2018-01-19T07:27:48.470Z,23.67
2018-01-19T07:30:17.676Z,12.70
2018-01-19T07:32:46.084Z,13.93
2018-01-19T07:35:14.507Z,16.13
2018-01-19T07:37:43.710Z,10.03
2018-01-19T07:40:12.928Z,23.27
2018-01-19T07:42:41.298Z,14.17
2018-01-19T07:45:10.472Z,17.03
2018-01-19T07:47:38.952Z,12.13
2018-01-19T07:50:07.312Z,13.53
2018-01-19T07:52:35.774Z,16.33
2018-01-19T07:55:04.225Z,15.27
2018-01-19T07:57:32.684Z,10.90
2018-01-19T08:00:01.818Z,12.83
2018-01-19T08:02:30.266Z,8.27
2018-01-19T08:04:59.460Z,18.13
2018-01-19T08:07:28.792Z,17.43
2018-01-19T08:09:57.196Z,18.30
2018-01-19T08:12:25.649Z,25.07
2018-01-19T08:14:54.092Z,23.03
2018-01-19T08:17:23.293Z,21.70
2018-01-19T08:19:52.442Z,15.13
2018-01-19T08:22:20.812Z,17.27
2018-01-19T08:24:49.214Z,16.53
2018-01-19T08:27:17.648Z,19.60
2018-01-19T08:29:46.106Z,18.90
2018-01-19T08:32:15.294Z,13.70
2018-01-19T08:34:43.663Z,25.23
2018-01-19T08:37:12.050Z,22.67
2018-01-19T08:39:40.501Z,19.37
2018-01-19T08:42:09.042Z,24.30
2018-01-19T08:44:37.492Z,23.87
2018-01-19T08:47:06.033Z,12.90
2018-01-19T08:49:34.586Z,14.83
2018-01-19T08:52:03.284Z,14.83
2018-01-19T08:54:31.746Z,12.20
2018-01-19T08:57:00.213Z,11.10
2018-01-19T08:59:29.447Z,12.67
2018-01-19T09:01:57.977Z,8.30
2018-01-19T09:04:26.413Z,14.47
2018-01-19T09:06:54.765Z,14.53
2018-01-19T09:09:23.895Z,17.03
2018-01-19T09:11:52.330Z,21.20
2018-01-19T09:14:21.569Z,14.57
2018-01-19T09:16:50.007Z,12.60
2018-01-19T09:19:19.199Z,4.67
2018-01-19T09:21:48.452Z,9.63
2018-01-19T09:24:16.932Z,18.73
2018-01-19T09:26:45.301Z,13.23
2018-01-19T09:29:13.753Z,4.80
2018-01-19T09:31:43.030Z,8.50
2018-01-19T09:34:12.251Z,13.70
2018-01-19T09:36:40.736Z,6.30
2018-01-19T09:39:09.145Z,5.73
2018-01-19T09:41:37.522Z,9.30
2018-01-19T09:44:05.908Z,11.20
2018-01-19T09:46:34.328Z,12.87
2018-01-19T09:49:03.541Z,15.60
2018-01-19T09:51:32.009Z,18.13
2018-01-19T09:54:01.212Z,15.50
2018-01-19T09:56:30.344Z,18.07
2018-01-19T09:58:58.731Z,15.87
2018-01-19T10:01:27.167Z,19.73
2018-01-19T10:03:56.454Z,16.93
2018-01-19T10:06:25.766Z,11.97
2018-01-19T10:08:54.951Z,16.17
2018-01-19T10:11:23.418Z,21.50
2018-01-19T10:13:51.794Z,12.60
2018-01-19T10:16:20.236Z,15.97
2018-01-19T10:18:48.628Z,15.83
2018-01-19T10:21:17.090Z,19.80
2018-01-19T10:23:45.798Z,22.63
2018-01-19T10:26:14.259Z,20.10
2018-01-19T10:28:42.655Z,16.80
2018-01-19T10:31:11.135Z,23.77
2018-01-19T10:33:39.513Z,23.43
2018-01-19T10:36:07.953Z,18.00
2018-01-19T10:38:37.263Z,14.77
2018-01-19T10:41:05.632Z,14.93
2018-01-19T10:43:34.823Z,18.80
2018-01-19T10:46:03.967Z,17.23
2018-01-19T10:48:32.344Z,16.97
2018-01-19T10:51:00.791Z,16.07
2018-01-19T10:53:29.247Z,17.43
2018-01-19T10:55:58.447Z,20.93
2018-01-19T10:58:27.602Z,18.07
2018-01-19T11:00:56.057Z,24.13
2018-01-19T11:03:24.423Z,19.33
2018-01-19T11:05:52.780Z,26.13
2018-01-19T11:08:21.314Z,22.57
2018-01-19T11:10:49.881Z,23.73
2018-01-19T11:13:18.239Z,26.10
2018-01-19T11:15:47.443Z,26.07
2018-01-19T11:18:15.868Z,27.93
2018-01-19T11:20:44.299Z,26.87
2018-01-19T11:23:12.843Z,28.40
2018-01-19T11:25:41.744Z,36.47
2018-01-19T11:28:10.948Z,37.83
2018-01-19T11:30:40.112Z,36.30
2018-01-19T11:33:08.474Z,29.70
2018-01-19T11:35:36.952Z,35.83
2018-01-19T11:38:05.352Z,31.33
2018-01-19T11:40:33.802Z,39.47
2018-01-19T11:43:02.168Z,24.70
2018-01-19T11:45:30.640Z,28.03
2018-01-19T11:47:59.768Z,34.40
2018-01-19T11:50:28.137Z,32.50
2018-01-19T11:52:56.516Z,24.97
2018-01-19T11:55:24.873Z,34.63
2018-01-19T11:57:54.024Z,29.57
2018-01-19T12:00:22.467Z,29.17
2018-01-19T12:02:50.900Z,31.43
2018-01-19T12:05:19.326Z,37.93
2018-01-19T12:07:47.765Z,27.13
2018-01-19T12:10:17.005Z,37.47
2018-01-19T12:12:45.365Z,24.80
2018-01-19T12:15:14.621Z,23.87
2018-01-19T12:17:42.978Z,31.00
2018-01-19T12:20:11.424Z,21.30
2018-01-19T12:22:39.913Z,19.20
2018-01-19T12:25:08.296Z,26.00
2018-01-19T12:27:36.707Z,23.90
2018-01-19T12:30:05.104Z,28.10
2018-01-19T12:32:33.532Z,27.50
2018-01-19T12:35:01.888Z,34.13
2018-01-19T12:37:31.032Z,26.63
2018-01-19T12:39:59.498Z,23.77
2018-01-19T12:42:27.846Z,26.53
2018-01-19T12:44:57.166Z,26.60
2018-01-19T12:47:25.768Z,30.13
2018-01-19T12:49:54.128Z,33.93
2018-01-19T12:52:22.510Z,23.80
2018-01-19T12:54:50.991Z,24.07
2018-01-19T12:57:19.489Z,25.63
2018-01-19T12:59:47.859Z,27.27
2018-01-19T13:02:16.233Z,27.83
2018-01-19T13:04:44.597Z,26.80
2018-01-19T13:07:12.982Z,24.77
2018-01-19T13:09:41.372Z,26.07
2018-01-19T13:12:09.798Z,28.83
2018-01-19T13:14:39.063Z,21.50
2018-01-19T13:17:07.454Z,23.37
2018-01-19T13:19:35.893Z,24.23
2018-01-19T13:22:04.372Z,20.73
2018-01-19T13:24:32.764Z,21.30
2018-01-19T13:27:01.149Z,23.20
2018-01-19T13:29:29.530Z,20.07
2018-01-19T13:31:57.872Z,22.10
2018-01-19T13:34:27.026Z,20.10
2018-01-19T13:36:55.484Z,22.50
2018-01-19T13:39:23.857Z,20.53
2018-01-19T13:41:52.334Z,18.80
2018-01-19T13:44:20.759Z,19.33
2018-01-19T13:46:49.243Z,14.37
2018-01-19T13:49:17.636Z,15.87
2018-01-19T13:51:46.863Z,18.10
2018-01-19T13:54:15.236Z,13.90
2018-01-19T13:56:43.664Z,17.20
2018-01-19T13:59:12.102Z,15.10
2018-01-19T14:01:40.570Z,20.00
2018-01-19T14:04:08.954Z,20.63
2018-01-19T14:06:37.381Z,16.37
2018-01-19T14:09:05.843Z,15.63
2018-01-19T14:11:34.216Z,16.93
2018-01-19T14:14:02.571Z,13.17
2018-01-19T14:16:30.965Z,13.87
2018-01-19T14:18:59.340Z,13.43
2018-01-19T14:21:27.713Z,14.07
2018-01-19T14:23:56.104Z,11.93
2018-01-19T14:26:24.470Z,15.63
2018-01-19T14:28:52.934Z,14.00
2018-01-19T14:31:21.312Z,12.17
2018-01-19T14:33:50.440Z,12.57
2018-01-19T14:36:18.794Z,16.43
2018-01-19T14:38:47.192Z,10.67
2018-01-19T14:41:15.676Z,10.30
2018-01-19T14:43:44.136Z,10.07
2018-01-19T14:46:12.620Z,10.47
2018-01-19T14:48:41.053Z,11.60
2018-01-19T14:51:09.479Z,11.80
2018-01-19T14:53:37.852Z,9.83
2018-01-19T14:56:06.204Z,8.97
2018-01-19T14:58:35.487Z,9.27
2018-01-19T15:01:04.033Z,9.97
2018-01-19T15:03:32.519Z,9.07
2018-01-19T15:06:00.886Z,9.90
2018-01-19T15:08:29.352Z,11.60
2018-01-19T15:10:57.784Z,11.60
2018-01-19T15:13:26.219Z,13.23
2018-01-19T15:15:54.728Z,15.23
2018-01-19T15:18:23.124Z,14.90
2018-01-19T15:20:51.602Z,13.60
2018-01-19T15:23:20.147Z,13.90
2018-01-19T15:25:48.579Z,13.43
2018-01-19T15:28:17.765Z,13.07
2018-01-19T15:30:46.313Z,13.67
2018-01-19T15:33:14.844Z,12.77
2018-01-19T15:35:44.069Z,17.30
2018-01-19T15:38:12.570Z,12.30
2018-01-19T15:40:40.944Z,12.90
2018-01-19T15:43:09.375Z,13.80
2018-01-19T15:45:38.565Z,13.23
2018-01-19T15:48:06.941Z,11.57
2018-01-19T15:50:35.492Z,12.87
2018-01-19T15:53:04.009Z,13.20
2018-01-19T15:55:32.425Z,12.13
2018-01-19T15:58:00.838Z,10.63
2018-01-19T16:00:29.217Z,11.10
2018-01-19T16:02:57.714Z,12.00
2018-01-19T16:05:26.076Z,9.80
2018-01-19T16:07:54.465Z,9.13
2018-01-19T16:10:22.822Z,9.63
2018-01-19T16:12:51.229Z,9.77
2018-01-19T16:15:19.612Z,14.70
2018-01-19T16:17:48.023Z,10.50
2018-01-19T16:20:16.442Z,13.10
2018-01-19T16:22:44.812Z,10.60
2018-01-19T16:25:13.246Z,11.97
2018-01-19T16:27:42.399Z,11.83
2018-01-19T16:30:10.835Z,13.57
2018-01-19T16:32:39.972Z,14.00
2018-01-19T16:35:08.411Z,16.53
2018-01-19T16:37:36.811Z,21.70
2018-01-19T16:40:05.278Z,18.67
2018-01-19T16:42:33.793Z,22.17
2018-01-19T16:45:02.181Z,23.33
2018-01-19T16:47:30.555Z,26.00
2018-01-19T16:49:58.980Z,21.83
2018-01-19T16:52:28.187Z,22.03
2018-01-19T16:54:57.329Z,20.87
2018-01-19T16:57:25.804Z,21.33
2018-01-19T16:59:54.177Z,19.37
2018-01-19T17:02:22.615Z,20.27
2018-01-19T17:04:51.852Z,21.00
2018-01-19T17:07:20.223Z,22.77
2018-01-19T17:09:48.654Z,20.50
2018-01-19T17:12:17.141Z,23.30
2018-01-19T17:14:46.339Z,20.17
2018-01-19T17:17:14.760Z,18.97
2018-01-19T17:19:43.371Z,20.70
2018-01-19T17:22:11.925Z,19.50
2018-01-19T17:24:40.373Z,22.50
2018-01-19T17:27:09.548Z,23.43
2018-01-19T17:29:38.899Z,23.33
2018-01-19T17:32:07.401Z,21.30
2018-01-19T17:34:35.990Z,19.60
2018-01-19T17:37:04.469Z,20.83
2018-01-19T17:39:33.062Z,20.80
2018-01-19T17:42:01.440Z,23.37
2018-01-19T17:44:29.860Z,20.90
2018-01-19T17:46:59.017Z,22.80
2018-01-19T17:49:27.455Z,21.37
2018-01-19T17:51:55.883Z,20.30
2018-01-19T17:54:24.332Z,24.20
2018-01-19T17:56:52.715Z,21.57
2018-01-19T17:59:21.101Z,22.37
2018-01-19T18:01:49.461Z,26.97
2018-01-19T18:04:17.820Z,25.90
2018-01-19T18:06:47.039Z,20.83
2018-01-19T18:09:15.416Z,25.77
2018-01-19T18:11:43.808Z,20.07
2018-01-19T18:14:12.280Z,26.43
2018-01-19T18:16:40.691Z,29.37
2018-01-19T18:19:09.191Z,22.77
2018-01-19T18:21:38.421Z,19.53
2018-01-19T18:24:06.930Z,19.73
2018-01-19T18:26:35.316Z,21.60
2018-01-19T18:29:03.715Z,22.50
2018-01-19T18:31:32.856Z,19.83
2018-01-19T18:34:01.324Z,15.97
2018-01-19T18:36:29.793Z,18.43
2018-01-19T18:38:58.944Z,20.20
2018-01-19T18:41:27.363Z,18.20
2018-01-19T18:43:56.516Z,15.13
2018-01-19T18:46:24.981Z,16.03
2018-01-19T18:48:53.347Z,15.07
2018-01-19T18:51:21.857Z,13.93
2018-01-19T18:53:50.339Z,13.33
2018-01-19T18:56:18.861Z,14.30
2018-01-19T18:58:47.358Z,13.00
2018-01-19T19:01:16.586Z,14.20
2018-01-19T19:03:44.948Z,12.03
2018-01-19T19:06:14.135Z,12.33
2018-01-19T19:08:42.635Z,15.00
2018-01-19T19:11:11.125Z,13.30
2018-01-19T19:13:39.481Z,10.90
2018-01-19T19:16:08.674Z,11.77
2018-01-19T19:18:37.131Z,10.33
2018-01-19T19:21:05.507Z,12.13
2018-01-19T19:23:33.953Z,16.70
2018-01-19T19:26:02.420Z,18.50
2018-01-19T19:28:30.911Z,11.10
2018-01-19T19:30:59.409Z,8.30
2018-01-19T19:33:27.791Z,9.20
2018-01-19T19:35:56.229Z,9.87
2018-01-19T19:38:24.636Z,7.63
2018-01-19T19:40:53.044Z,7.77
2018-01-19T19:43:21.477Z,7.90
2018-01-19T19:45:49.935Z,8.00
2018-01-19T19:48:19.107Z,8.70
2018-01-19T19:50:48.280Z,8.50
2018-01-19T19:53:16.747Z,9.63
2018-01-19T19:55:45.175Z,9.40
2018-01-19T19:58:14.386Z,8.60
2018-01-19T20:00:42.783Z,8.43
2018-01-19T20:03:11.221Z,10.43
2018-01-19T20:05:40.353Z,9.80
2018-01-19T20:08:08.824Z,8.30
2018-01-19T20:10:37.275Z,15.47
2018-01-19T20:13:06.410Z,9.70
2018-01-19T20:15:34.967Z,10.00
2018-01-19T20:18:04.255Z,10.90
2018-01-19T20:20:33.447Z,11.47
2018-01-19T20:23:01.912Z,14.53
2018-01-19T20:25:30.411Z,16.03
2018-01-19T20:27:58.843Z,18.40
2018-01-19T20:30:27.284Z,20.20
2018-01-19T20:32:56.515Z,16.30
2018-01-19T20:35:24.922Z,17.77
2018-01-19T20:37:53.389Z,17.70
2018-01-19T20:40:21.753Z,15.83
2018-01-19T20:42:50.189Z,16.47
2018-01-19T20:45:19.433Z,17.67
2018-01-19T20:47:47.803Z,15.33
2018-01-19T20:50:16.276Z,16.73
2018-01-19T20:52:44.710Z,18.70
2018-01-19T20:55:13.080Z,21.07
2018-01-19T20:57:41.469Z,21.13
2018-01-19T21:00:09.869Z,17.23
2018-01-19T21:02:38.221Z,14.60
2018-01-19T21:05:06.609Z,15.30
2018-01-19T21:07:35.142Z,20.30
2018-01-19T21:10:03.537Z,13.43
2018-01-19T21:12:31.996Z,12.00
2018-01-19T21:15:00.582Z,13.57
2018-01-19T21:17:29.147Z,16.73
2018-01-19T21:19:57.907Z,17.50
2018-01-19T21:22:27.131Z,15.17
2018-01-19T21:24:56.348Z,12.40
2018-01-19T21:27:24.773Z,12.40
2018-01-19T21:29:53.205Z,11.77
2018-01-19T21:32:21.644Z,11.47
2018-01-19T21:34:50.076Z,10.80
2018-01-19T21:37:18.750Z,15.30
2018-01-19T21:39:47.199Z,11.83
2018-01-19T21:42:16.427Z,11.23
2018-01-19T21:44:44.930Z,11.37
2018-01-19T21:47:13.446Z,10.70
2018-01-19T21:49:41.954Z,10.87
2018-01-19T21:52:10.412Z,10.90
2018-01-19T21:54:38.832Z,10.87
2018-01-19T21:57:07.318Z,9.93
2018-01-19T21:59:35.793Z,10.80
2018-01-19T22:02:04.180Z,9.93
2018-01-19T22:04:32.566Z,12.33
2018-01-19T22:07:01.019Z,10.70
2018-01-19T22:09:29.407Z,11.17
2018-01-19T22:11:57.919Z,9.40
2018-01-19T22:14:26.382Z,10.47
2018-01-19T22:16:54.823Z,12.50
2018-01-19T22:19:24.139Z,13.50
2018-01-19T22:21:52.624Z,10.30
2018-01-19T22:24:21.093Z,11.43
2018-01-19T22:26:50.310Z,11.70
2018-01-19T22:29:18.671Z,11.03
2018-01-19T22:31:47.871Z,11.43
2018-01-19T22:34:16.324Z,12.47
2018-01-19T22:36:44.770Z,10.43
2018-01-19T22:39:13.384Z,13.03
2018-01-19T22:41:41.903Z,18.97
2018-01-19T22:44:10.375Z,13.23
2018-01-19T22:46:38.778Z,12.37
2018-01-19T22:49:07.206Z,11.43
2018-01-19T22:51:36.381Z,11.93
2018-01-19T22:54:04.810Z,16.00
2018-01-19T22:56:33.260Z,15.20
2018-01-19T22:59:01.629Z,12.23
2018-01-19T23:01:30.064Z,12.27
2018-01-19T23:03:58.495Z,10.00
2018-01-19T23:06:26.987Z,10.00
2018-01-19T23:08:56.127Z,12.67
2018-01-19T23:11:24.498Z,11.50
2018-01-19T23:13:52.869Z,12.90
2018-01-19T23:16:21.298Z,12.53
2018-01-19T23:18:49.699Z,13.20
2018-01-19T23:21:18.180Z,18.47
2018-01-19T23:23:47.541Z,12.43
2018-01-19T23:26:16.006Z,13.10
2018-01-19T23:28:44.463Z,12.60
2018-01-19T23:31:12.904Z,13.00
2018-01-19T23:33:41.363Z,12.93
2018-01-19T23:36:09.885Z,13.40
2018-01-19T23:38:39.045Z,16.13
2018-01-19T23:41:07.547Z,17.07
2018-01-19T23:43:36.071Z,14.27
2018-01-19T23:46:04.457Z,15.80
2018-01-19T23:48:32.886Z,11.90
2018-01-19T23:51:02.874Z,13.77
2018-01-19T23:53:31.264Z,17.67
2018-01-19T23:55:59.632Z,14.23
2018-01-19T23:58:28.058Z,13.23
